• Join FlightAware (Why Join?)
  • Login
  • US Flag 
10:16AM EST


 

Airport Tracker/Info


-or-


 

Live Flight TrackerFlight Track Log ✈ N784JP ✈ 15-May-2013 ✈ KLGA - KDET

Flight Track Log - Related Links

Times and Time Zones

All times are in EDT time to prevent confusion due to time zone crossing. See the N784JP flight status page for this flight to view local times or setup timezone preferences in your user account.

Time Position Orientation Groundspeed Altitude Reporting Facility
EDT Latitude Longitude Course Direction KTS MPH feet Rate Location/Type
04:37PM 40.7500 -73.8333 49° Northeast 152 175 2,100  Level New York TRACON
04:38PM 40.7833 -73.7833 49° Northeast 237 273 4,200 2,280 Climbing New York TRACON
04:39PM 40.8500 -73.7833 360° North 222 255 6,900 2,340 Climbing New York TRACON
04:41PM 40.9389 -73.8997 315° West 190 219 12,200 2,100 Climbing New York Center
04:42PM 40.9836 -73.9431 324° Northwest 195 224 14,100 1,860 Climbing New York Center
04:43PM 41.0281 -73.9919 320° Northwest 202 232 16,100 1,380 Climbing New York Center
04:44PM 41.0789 -74.0411 324° Northwest 217 250 16,900 420 Climbing New York Center
04:45PM 41.1378 -74.0964 325° Northwest 264 304 17,000  Climbing New York Center
04:46PM 41.2106 -74.1661 324° Northwest 296 341 17,000  Level New York Center
04:47PM 41.2714 -74.2272 323° Northwest 296 341 17,000 660 Level New York Center
04:48PM 41.3422 -74.2972 323° Northwest 296 341 18,400 1,080 Climbing New York Center
04:49PM 41.4031 -74.3528 326° Northwest 296 341 19,200 1,080 Climbing New York Center
04:50PM 41.4439 -74.4408 302° West 285 328 20,600 1,680 Climbing New York Center
04:51PM 41.4808 -74.5258 300° West 275 316 22,600 2,100 Climbing New York Center
04:52PM 41.5156 -74.6136 298° West 260 299 24,800 1,800 Climbing New York Center
04:53PM 41.5506 -74.6906 301° West 248 285 26,300 1,440 Climbing New York Center
04:54PM 41.5833 -74.7672 300° West 243 280 27,700 1,320 Climbing New York Center
04:55PM 41.6161 -74.8469 299° West 243 280 28,900 1,080 Climbing New York Center
04:56PM 41.6528 -74.9269 302° West 250 288 30,000 1,080 Climbing New York Center
04:57PM 41.6875 -75.0069 300° West 250 288 31,100 1,200 Climbing New York Center
04:58PM 41.7239 -75.0925 300° West 250 288 32,400 1,260 Climbing New York Center
04:59PM 41.7564 -75.1753 298° West 250 288 33,600 780 Climbing New York Center
05:00PM 41.7928 -75.2583 300° West 255 293 34,000 180 Climbing New York Center
05:01PM 41.8308 -75.3500 299° West 268 308 34,000  Level New York Center
05:02PM 41.8728 -75.4475 300° West 289 333 34,000  Level New York Center
05:03PM 41.9167 -75.5483 300° West 305 351 34,000  Level New York Center
05:04PM 41.9564 -75.6514 297° West 312 359 34,000 180 Level New York Center
05:05PM 41.9981 -75.7522 299° West 312 359 34,400 600 Climbing New York Center
05:06PM 42.0394 -75.8531 299° West 312 359 35,300 780 Climbing New York Center
05:07PM 42.0792 -75.9456 300° West 307 353 36,000 300 Climbing New York Center
05:08PM 42.1189 -76.0381 300° West 302 348 36,000  Level New York Center
05:10PM 42.1744 -76.1950 296° West 304 350 36,000  Level Cleveland Center
05:11PM 42.2075 -76.3022 293° West 310 357 36,000  Level Cleveland Center
05:12PM 42.2453 -76.4175 294° West 310 357 36,000  Level Cleveland Center
05:13PM 42.2803 -76.5219 294° West 310 357 36,000  Level Cleveland Center
05:14PM 42.3131 -76.6264 293° West 305 351 36,000  Level Cleveland Center
05:15PM 42.3458 -76.7283 294° West 305 351 36,000  Level Cleveland Center
05:16PM 42.3783 -76.8333 293° West 305 351 36,000  Level Cleveland Center
05:17PM 42.4108 -76.9356 293° West 305 351 36,000 480 Level Cleveland Center
05:18PM 42.4411 -77.0378 292° West 305 351 37,000 900 Climbing Cleveland Center
05:19PM 42.4711 -77.1319 293° West 294 338 37,900 480 Climbing Cleveland Center
05:20PM 42.5011 -77.2261 293° West 283 326 38,000  Climbing Cleveland Center
05:21PM 42.5331 -77.3258 294° West 283 326 38,000  Level Cleveland Center
05:22PM 42.5631 -77.4258 292° West 288 331 38,000  Level Cleveland Center
05:23PM 42.5928 -77.5231 293° West 300 345 38,000  Level Cleveland Center
05:24PM 42.6244 -77.6258 293° West 300 345 38,000  Level Cleveland Center
05:25PM 42.6542 -77.7261 292° West 305 351 38,000  Level Cleveland Center
05:26PM 42.6858 -77.8264 293° West 300 345 38,000  Level Cleveland Center
05:27PM 42.7175 -77.9294 293° West 294 338 38,000  Level Cleveland Center
05:28PM 42.7467 -78.0300 292° West 289 333 38,000  Level Cleveland Center
05:29PM 42.7925 -78.1189 305° West 289 333 38,000  Level Cleveland Center
05:30PM 42.8822 -78.1322 354° North 278 320 38,000  Level Cleveland Center
05:31PM 42.9822 -78.1256 North 311 358 38,000  Level Cleveland Center
05:32PM 43.0742 -78.1361 355° North 323 372 38,000 -120 Level Cleveland Center
05:33PM 43.1383 -78.2106 320° Northwest 309 356 37,800 -600 Descending Cleveland Center
05:34PM 43.1550 -78.3178 282° West 277 319 36,900 -960 Descending Cleveland Center
05:35PM 43.1511 -78.4375 267° West 284 327 35,900 -1,020 Descending Cleveland Center
05:36PM 43.1469 -78.5600 267° West 305 351 34,900 -960 Descending Cleveland Center
05:37PM 43.1450 -78.6825 269° West 324 373 34,000 -480 Descending Cleveland Center
05:38PM 43.1406 -78.8050 267° West 329 379 34,000  Level Cleveland Center
05:39PM 43.1333 -78.9667 267° West 320 368 34,000  Level Toronto Center
05:40PM 43.1167 -79.0833 259° West 320 368 34,000 -360 Level Toronto Center
05:41PM 43.1167 -79.2000 270° West 320 368 33,300 -660 Descending Toronto Center
05:42PM 43.1167 -79.3333 270° West 330 380 32,700 -840 Descending Toronto Center
05:43PM 43.1000 -79.4500 259° West 330 380 31,700 -1,020 Descending Toronto Center
05:44PM 43.1000 -79.5833 270° West 320 368 30,700 -1,080 Descending Toronto Center
05:45PM 43.1000 -79.7000 270° West 320 368 29,600 -1,020 Descending Toronto Center
05:46PM 43.0833 -79.8167 259° West 330 380 28,700 -960 Descending Toronto Center
05:47PM 43.0833 -79.9500 270° West 340 391 27,700 -1,020 Descending Toronto Center
05:48PM 43.0833 -80.0833 270° West 340 391 26,700 -1,020 Descending Toronto Center
05:49PM 43.0833 -80.2000 270° West 340 391 25,700 -1,020 Descending Toronto Center
05:50PM 43.0667 -80.3333 260° West 330 380 24,700 -900 Descending Toronto Center
05:51PM 43.0667 -80.4500 270° West 320 368 24,000 -360 Descending Toronto Center
05:52PM 43.0667 -80.5667 270° West 310 357 24,000  Level Toronto Center
05:53PM 43.0500 -80.6833 259° West 310 357 24,000 -300 Level Toronto Center
05:54PM 43.0333 -80.8167 260° West 310 357 23,500 -720 Descending Toronto Center
05:55PM 43.0167 -80.9333 259° West 320 368 22,600 -960 Descending Toronto Center
05:56PM 43.0000 -81.0500 259° West 310 357 21,600 -1,140 Descending Toronto Center
05:57PM 42.9833 -81.1667 259° West 300 345 20,400 -1,200 Descending Toronto Center
05:58PM 42.9667 -81.2500 255° West 290 334 19,300 -1,140 Descending Toronto Center
05:59PM 42.9333 -81.3667 249° West 290 334 18,200 -1,140 Descending Toronto Center
06:00PM 42.9167 -81.4833 259° West 290 334 17,100 -1,200 Descending Toronto Center
06:01PM 42.9000 -81.5667 255° West 290 334 15,800 -1,200 Descending Toronto Center
06:02PM 42.8833 -81.6833 259° West 280 322 14,700 -1,140 Descending Toronto Center
06:03PM 42.8667 -81.7667 255° West 280 322 13,600 -1,080 Descending Toronto Center
06:04PM 42.8533 -81.8575 259° West 280 322 13,000 -1,020 Descending Cleveland Center
06:05PM 42.8333 -81.9592 255° West 280 322 12,000 -540 Descending Cleveland Center
06:06PM 42.8114 -82.0606 254° West 280 322 12,000 -360 Level Cleveland Center
06:07PM 42.7872 -82.1533 250° West 286 329 11,300 -900 Descending Cleveland Center
06:08PM 42.7525 -82.2458 243° Southwest 275 316 10,200 -1,200 Descending Cleveland Center
06:09PM 42.7178 -82.3325 241° Southwest 270 311 9,000 -1,260 Descending Cleveland Center
06:10PM 42.6964 -82.3714 233° Southwest 276 318 8,400 -1,020 Descending Cleveland Center
06:10PM 42.6789 -82.4161 242° Southwest 270 311 8,000 -1,140 Descending Cleveland Center
06:10PM 42.6681 -82.4553 249° West 263 303 7,400 -1,200 Descending Cleveland Center
06:11PM 42.6483 -82.5056 242° Southwest 265 305 6,800 -1,200 Descending Cleveland Center
06:11PM 42.6372 -82.5447 249° West 269 310 6,200 -1,440 Descending Cleveland Center
06:12PM 42.6178 -82.5947 242° Southwest 265 305 5,400 -1,260 Descending Cleveland Center
06:13PM 42.6025 -82.6311 240° Southwest 235 270 4,900 -840 Descending Cleveland Center
06:13PM 42.5831 -82.6672 234° Southwest 253 291 4,600 -660 Descending Cleveland Center
06:13PM 42.5719 -82.6978 244° Southwest 226 260 4,300 -480 Descending Cleveland Center
06:14PM 42.5333 -82.7669 233° Southwest 229 264 4,000 -180 Descending Cleveland Center
06:15PM 42.4944 -82.8275 229° Southwest 199 229 4,000 -60 Level Cleveland Center
06:17PM 42.4497 -82.8794 221° Southwest 194 223 3,900 -480 Descending Cleveland Center
06:18PM 42.4114 -82.9172 216° Southwest 174 200 3,100 -960 Descending Cleveland Center
06:19PM 42.3878 -82.9503 226° Southwest 104 120 2,100 -960 Descending Cleveland Center
06:19PM 42.3872 -82.9867 269° West 117 135 1,300 -900 Descending Cleveland Center
06:21PM 42.4000 -83.0000 236° Southwest  Level FlightAware Approximate
06:28PM 42.4093 -83.0102 236° Southwest  Level Estimated
06:29PM 42.4093 -83.0102 236° Southwest  Level Estimated